MST,Max TemperatureF,Mean TemperatureF,Min TemperatureF,Max Dew PointF,MeanDew PointF,Min DewpointF,Max Humidity, Mean Humidity, Min Humidity, Max Sea Level PressureIn, Mean Sea Level PressureIn, Min Sea Level PressureIn, Max VisibilityMiles, Mean VisibilityMiles, Min VisibilityMiles, Max Wind SpeedMPH, Mean Wind SpeedMPH, Max Gust SpeedMPH,PrecipitationIn, CloudCover, Events, WindDirDegrees
2013-11-1,57,40,24,26,22,19,86,52,22,30.33,30.20,30.07,10,10,10,20,11,25,0.00,0,,322
2013-11-2,63,40,17,24,20,14,89,52,18,30.38,30.28,30.13,10,10,10,14,4,20,0.00,0,,163
2013-11-3,62,46,29,31,26,18,73,50,28,30.13,29.97,29.86,10,10,10,23,6,33,0.00,2,,244
2013-11-4,63,46,29,38,32,26,88,58,29,30.02,29.96,29.92,10,10,7,21,10,29,0.11,3,Rain-Thunderstorm,160
2013-11-5,49,39,29,39,31,13,96,70,44,30.26,30.05,29.90,10,10,7,21,10,28,0.02,4,Rain-Thunderstorm,302
2013-11-6,52,34,16,19,15,10,82,49,18,30.45,30.36,30.26,10,10,10,22,7,28,0.00,0,,325
2013-11-7,61,40,19,24,17,10,85,53,17,30.51,30.42,30.34,10,10,10,10,4,,0.00,0,,160
2013-11-8,61,38,16,24,19,12,86,52,18,30.34,30.21,30.11,10,10,10,16,5,20,0.00,0,,298
2013-11-9,65,46,26,22,19,17,73,44,15,30.32,30.23,30.16,10,10,10,14,5,21,0.00,0,,354
2013-11-10,66,42,19,23,19,15,85,51,17,30.39,30.33,30.28,10,10,10,12,3,,0.00,0,,1
2013-11-11,68,44,21,30,17,12,82,46,12,30.49,30.35,30.29,10,10,10,13,5,20,0.00,0,,348
2013-11-12,46,36,26,34,31,23,96,80,58,30.72,30.61,30.49,10,10,5,14,6,,0.00,6,,137
2013-11-13,55,42,30,34,32,28,99,80,42,30.58,30.39,30.20,10,8,0,12,2,,0.00,4,Fog,211
2013-11-14,55,39,23,37,28,20,98,71,34,30.19,30.10,30.02,10,9,0,16,4,20,0.00,2,Fog,356
2013-11-15,60,38,16,41,28,14,90,68,28,30.02,29.89,29.78,10,10,7,28,6,33,0.02,3,Rain-Thunderstorm,227
2013-11-16,55,46,37,39,33,25,89,63,37,29.89,29.81,29.73,10,10,10,28,8,32,0.00,3,Rain,247
2013-11-17,55,40,26,31,28,23,86,57,33,30.23,30.06,29.89,10,10,10,25,11,33,0.00,0,,294
2013-11-18,56,40,23,30,26,21,90,65,32,30.28,30.22,30.18,10,10,10,8,4,,0.00,0,,337
2013-11-19,59,39,19,32,27,18,93,65,29,30.19,30.05,29.95,10,10,10,21,5,25,0.00,0,,280
2013-11-20,46,40,35,39,34,26,93,77,54,30.02,29.98,29.95,10,10,7,13,9,16,0.02,5,Rain,276
2013-11-21,52,42,30,40,35,28,97,80,60,30.25,30.10,29.99,10,9,4,13,5,17,0.08,6,Rain-Snow,146
2013-11-22,29,25,21,27,22,18,95,90,86,30.45,30.39,30.26,10,9,2,13,8,,0.02,8,Snow,143
2013-11-23,27,24,20,24,21,18,93,85,77,30.52,30.44,30.41,10,8,0,15,9,20,0.03,8,Snow,122
2013-11-24,23,18,14,21,15,12,93,85,71,30.41,30.23,30.05,10,7,0,15,6,,0.16,7,Snow,150
2013-11-25,36,22,7,26,19,5,93,82,62,30.34,30.15,30.00,10,10,10,21,7,24,0.00,4,Snow,350
2013-11-26,37,20,3,27,14,0,95,85,64,30.44,30.40,30.33,10,10,7,7,3,,0.00,1,,13
2013-11-27,34,20,5,27,15,2,96,87,70,30.42,30.31,30.21,10,8,0,5,2,,0.00,2,Fog,358
2013-11-28,38,24,10,26,16,7,94,83,57,30.32,30.25,30.20,10,10,10,7,3,,0.00,0,,348
2013-11-29,44,28,11,29,20,8,95,81,55,30.37,30.32,30.28,10,10,10,7,3,,0.00,0,,10
2013-11-30,49,35,21,32,26,19,93,81,51,30.35,30.30,30.25,10,10,10,7,3,,0.00,0,,15